sensor_id;sensor_type;location;lat;lon;timestamp;P1;durP1;ratioP1;P2;durP2;ratioP2
39566;SDS011;25241;41.978;14.664;2024-02-23T10:42:51;4.43;;;1.85;;
39566;SDS011;25241;41.978;14.664;2024-02-23T10:45:22;7.00;;;1.52;;
39566;SDS011;25241;41.978;14.664;2024-02-23T10:47:50;8.65;;;1.70;;
39566;SDS011;25241;41.978;14.664;2024-02-23T10:50:18;5.50;;;1.55;;
39566;SDS011;25241;41.978;14.664;2024-02-23T10:52:47;4.30;;;1.48;;
39566;SDS011;25241;41.978;14.664;2024-02-23T10:55:13;3.17;;;1.50;;
39566;SDS011;25241;41.978;14.664;2024-02-23T10:57:42;8.40;;;1.35;;
39566;SDS011;25241;41.978;14.664;2024-02-23T11:00:10;4.00;;;1.80;;
39566;SDS011;25241;41.978;14.664;2024-02-23T11:02:38;4.93;;;1.08;;
39566;SDS011;25241;41.978;14.664;2024-02-23T11:05:09;5.43;;;1.38;;
39566;SDS011;25241;41.978;14.664;2024-02-23T11:07:40;17.27;;;1.60;;
39566;SDS011;25241;41.978;14.664;2024-02-23T11:10:08;4.75;;;1.13;;
39566;SDS011;25241;41.978;14.664;2024-02-23T11:12:34;6.97;;;1.48;;
39566;SDS011;25241;41.978;14.664;2024-02-23T11:15:01;2.95;;;1.13;;
39566;SDS011;25241;41.978;14.664;2024-02-23T11:17:27;3.35;;;1.67;;
39566;SDS011;25241;41.978;14.664;2024-02-23T11:19:54;3.05;;;1.50;;
39566;SDS011;25241;41.978;14.664;2024-02-23T11:22:29;4.07;;;1.45;;
39566;SDS011;25241;41.978;14.664;2024-02-23T11:24:59;7.72;;;1.35;;
39566;SDS011;25241;41.978;14.664;2024-02-23T11:27:32;5.03;;;1.20;;
39566;SDS011;25241;41.978;14.664;2024-02-23T11:30:02;2.05;;;1.00;;
39566;SDS011;25241;41.978;14.664;2024-02-23T11:35:01;3.67;;;0.80;;
39566;SDS011;25241;41.978;14.664;2024-02-23T11:37:30;3.95;;;1.33;;
39566;SDS011;25241;41.978;14.664;2024-02-23T11:39:56;5.83;;;1.30;;
39566;SDS011;25241;41.978;14.664;2024-02-23T11:42:23;4.07;;;1.02;;
39566;SDS011;25241;41.978;14.664;2024-02-23T11:44:51;1.70;;;0.93;;
39566;SDS011;25241;41.978;14.664;2024-02-23T11:47:21;4.07;;;1.48;;
39566;SDS011;25241;41.978;14.664;2024-02-23T11:49:49;2.38;;;1.02;;
39566;SDS011;25241;41.978;14.664;2024-02-23T11:52:15;4.75;;;1.80;;
39566;SDS011;25241;41.978;14.664;2024-02-23T11:54:42;5.22;;;1.40;;
39566;SDS011;25241;41.978;14.664;2024-02-23T11:57:07;5.55;;;1.58;;
39566;SDS011;25241;41.978;14.664;2024-02-23T11:59:33;2.78;;;1.10;;
39566;SDS011;25241;41.978;14.664;2024-02-23T12:02:01;7.88;;;1.98;;
39566;SDS011;25241;41.978;14.664;2024-02-23T12:04:29;2.50;;;1.20;;
39566;SDS011;25241;41.978;14.664;2024-02-23T12:06:55;8.20;;;3.08;;
39566;SDS011;25241;41.978;14.664;2024-02-23T12:09:21;7.93;;;2.03;;
39566;SDS011;25241;41.978;14.664;2024-02-23T12:11:46;2.92;;;1.45;;
39566;SDS011;25241;41.978;14.664;2024-02-23T12:14:13;1.60;;;0.75;;
39566;SDS011;25241;41.978;14.664;2024-02-23T12:16:41;2.25;;;1.05;;
39566;SDS011;25241;41.978;14.664;2024-02-23T12:19:07;3.58;;;1.23;;
39566;SDS011;25241;41.978;14.664;2024-02-23T12:21:39;3.13;;;1.50;;
39566;SDS011;25241;41.978;14.664;2024-02-23T12:24:05;8.18;;;1.40;;
39566;SDS011;25241;41.978;14.664;2024-02-23T12:26:33;4.90;;;1.60;;
39566;SDS011;25241;41.978;14.664;2024-02-23T12:29:02;4.43;;;2.17;;
39566;SDS011;25241;41.978;14.664;2024-02-23T12:31:28;3.60;;;1.40;;
39566;SDS011;25241;41.978;14.664;2024-02-23T12:33:54;4.85;;;1.60;;
39566;SDS011;25241;41.978;14.664;2024-02-23T12:36:22;7.88;;;2.50;;
39566;SDS011;25241;41.978;14.664;2024-02-23T12:38:50;1.95;;;1.20;;
39566;SDS011;25241;41.978;14.664;2024-02-23T12:41:16;2.28;;;1.73;;
39566;SDS011;25241;41.978;14.664;2024-02-23T12:43:41;2.50;;;1.50;;
39566;SDS011;25241;41.978;14.664;2024-02-23T12:46:07;8.45;;;1.73;;
39566;SDS011;25241;41.978;14.664;2024-02-23T12:48:36;4.32;;;1.70;;
39566;SDS011;25241;41.978;14.664;2024-02-23T12:51:01;5.45;;;1.30;;
39566;SDS011;25241;41.978;14.664;2024-02-23T12:53:39;8.57;;;1.40;;
39566;SDS011;25241;41.978;14.664;2024-02-23T12:56:10;2.50;;;1.20;;
39566;SDS011;25241;41.978;14.664;2024-02-23T12:58:43;5.18;;;1.48;;
39566;SDS011;25241;41.978;14.664;2024-02-23T13:04:03;6.57;;;2.10;;
39566;SDS011;25241;41.978;14.664;2024-02-23T13:06:35;8.02;;;3.42;;
39566;SDS011;25241;41.978;14.664;2024-02-23T13:11:30;5.78;;;1.30;;
39566;SDS011;25241;41.978;14.664;2024-02-23T13:13:56;5.95;;;1.60;;
39566;SDS011;25241;41.978;14.664;2024-02-23T13:16:21;3.65;;;1.17;;
39566;SDS011;25241;41.978;14.664;2024-02-23T13:18:49;3.92;;;1.63;;
39566;SDS011;25241;41.978;14.664;2024-02-23T13:21:17;2.92;;;1.60;;
39566;SDS011;25241;41.978;14.664;2024-02-23T13:23:43;3.08;;;0.85;;
39566;SDS011;25241;41.978;14.664;2024-02-23T13:26:11;6.28;;;1.67;;
39566;SDS011;25241;41.978;14.664;2024-02-23T13:28:41;3.03;;;1.48;;
39566;SDS011;25241;41.978;14.664;2024-02-23T13:31:11;2.90;;;1.13;;
39566;SDS011;25241;41.978;14.664;2024-02-23T13:33:37;11.65;;;1.02;;
39566;SDS011;25241;41.978;14.664;2024-02-23T13:36:02;1.77;;;0.98;;
39566;SDS011;25241;41.978;14.664;2024-02-23T13:38:28;3.25;;;1.23;;
39566;SDS011;25241;41.978;14.664;2024-02-23T13:40:56;6.60;;;1.30;;
39566;SDS011;25241;41.978;14.664;2024-02-23T13:43:24;3.63;;;1.20;;
39566;SDS011;25241;41.978;14.664;2024-02-23T13:45:52;2.35;;;1.00;;
39566;SDS011;25241;41.978;14.664;2024-02-23T13:48:21;6.60;;;1.10;;
39566;SDS011;25241;41.978;14.664;2024-02-23T13:53:15;3.55;;;1.73;;
39566;SDS011;25241;41.978;14.664;2024-02-23T13:55:43;4.20;;;1.45;;
39566;SDS011;25241;41.978;14.664;2024-02-23T13:58:11;4.25;;;1.20;;
39566;SDS011;25241;41.978;14.664;2024-02-23T14:00:37;3.80;;;1.15;;
39566;SDS011;25241;41.978;14.664;2024-02-23T14:03:05;2.03;;;0.93;;
39566;SDS011;25241;41.978;14.664;2024-02-23T14:05:31;7.78;;;1.50;;
39566;SDS011;25241;41.978;14.664;2024-02-23T14:07:57;5.00;;;1.38;;
39566;SDS011;25241;41.978;14.664;2024-02-23T14:10:22;3.13;;;0.50;;
39566;SDS011;25241;41.978;14.664;2024-02-23T14:12:48;1.45;;;0.77;;
39566;SDS011;25241;41.978;14.664;2024-02-23T14:15:18;2.67;;;1.33;;
39566;SDS011;25241;41.978;14.664;2024-02-23T14:17:46;6.18;;;1.05;;
39566;SDS011;25241;41.978;14.664;2024-02-23T14:20:14;6.47;;;1.42;;
39566;SDS011;25241;41.978;14.664;2024-02-23T14:22:42;1.17;;;0.80;;
39566;SDS011;25241;41.978;14.664;2024-02-23T14:25:10;1.13;;;0.98;;
39566;SDS011;25241;41.978;14.664;2024-02-23T14:27:38;3.05;;;0.90;;
39566;SDS011;25241;41.978;14.664;2024-02-23T14:30:06;2.75;;;1.45;;
39566;SDS011;25241;41.978;14.664;2024-02-23T14:32:35;1.35;;;0.90;;
39566;SDS011;25241;41.978;14.664;2024-02-23T14:35:03;2.13;;;0.60;;
39566;SDS011;25241;41.978;14.664;2024-02-23T14:37:32;0.98;;;0.60;;
39566;SDS011;25241;41.978;14.664;2024-02-23T14:39:57;0.63;;;0.50;;
39566;SDS011;25241;41.978;14.664;2024-02-23T14:42:23;2.83;;;0.73;;
39566;SDS011;25241;41.978;14.664;2024-02-23T14:44:51;1.23;;;0.75;;
39566;SDS011;25241;41.978;14.664;2024-02-23T14:47:19;5.22;;;1.17;;
39566;SDS011;25241;41.978;14.664;2024-02-23T14:49:45;3.13;;;1.10;;
39566;SDS011;25241;41.978;14.664;2024-02-23T14:52:10;1.70;;;0.95;;
39566;SDS011;25241;41.978;14.664;2024-02-23T14:54:36;2.42;;;0.57;;
39566;SDS011;25241;41.978;14.664;2024-02-23T14:57:02;1.50;;;0.50;;
39566;SDS011;25241;41.978;14.664;2024-02-23T14:59:31;1.92;;;0.88;;
39566;SDS011;25241;41.978;14.664;2024-02-23T15:02:02;6.90;;;1.55;;
39566;SDS011;25241;41.978;14.664;2024-02-23T15:04:27;1.30;;;0.70;;
39566;SDS011;25241;41.978;14.664;2024-02-23T15:06:55;2.00;;;0.88;;
39566;SDS011;25241;41.978;14.664;2024-02-23T15:09:21;4.50;;;0.68;;
39566;SDS011;25241;41.978;14.664;2024-02-23T15:11:46;2.40;;;0.93;;
39566;SDS011;25241;41.978;14.664;2024-02-23T15:14:12;5.97;;;1.20;;
39566;SDS011;25241;41.978;14.664;2024-02-23T15:16:40;1.75;;;0.85;;
39566;SDS011;25241;41.978;14.664;2024-02-23T15:19:08;6.82;;;1.35;;
39566;SDS011;25241;41.978;14.664;2024-02-23T15:21:35;1.52;;;1.00;;
39566;SDS011;25241;41.978;14.664;2024-02-23T15:24:05;3.50;;;1.33;;
39566;SDS011;25241;41.978;14.664;2024-02-23T15:26:31;3.90;;;1.38;;
39566;SDS011;25241;41.978;14.664;2024-02-23T15:28:59;2.95;;;0.98;;
39566;SDS011;25241;41.978;14.664;2024-02-23T15:31:25;2.08;;;0.90;;
39566;SDS011;25241;41.978;14.664;2024-02-23T15:33:53;4.95;;;0.93;;
39566;SDS011;25241;41.978;14.664;2024-02-23T15:36:21;3.78;;;0.98;;
39566;SDS011;25241;41.978;14.664;2024-02-23T15:38:47;5.10;;;1.30;;
39566;SDS011;25241;41.978;14.664;2024-02-23T15:41:15;2.80;;;1.23;;
39566;SDS011;25241;41.978;14.664;2024-02-23T15:43:43;0.88;;;0.55;;
39566;SDS011;25241;41.978;14.664;2024-02-23T15:46:08;3.22;;;1.00;;
39566;SDS011;25241;41.978;14.664;2024-02-23T15:48:34;4.30;;;1.00;;
39566;SDS011;25241;41.978;14.664;2024-02-23T15:50:59;1.20;;;0.73;;
39566;SDS011;25241;41.978;14.664;2024-02-23T15:53:27;6.85;;;0.95;;
39566;SDS011;25241;41.978;14.664;2024-02-23T15:55:55;2.70;;;0.57;;
39566;SDS011;25241;41.978;14.664;2024-02-23T15:58:23;3.58;;;1.60;;
39566;SDS011;25241;41.978;14.664;2024-02-23T16:00:49;6.53;;;1.17;;
39566;SDS011;25241;41.978;14.664;2024-02-23T16:03:14;2.72;;;1.00;;
39566;SDS011;25241;41.978;14.664;2024-02-23T16:05:44;1.25;;;1.00;;
39566;SDS011;25241;41.978;14.664;2024-02-23T16:08:10;3.63;;;0.90;;
39566;SDS011;25241;41.978;14.664;2024-02-23T16:10:39;2.83;;;1.13;;
39566;SDS011;25241;41.978;14.664;2024-02-23T16:13:07;1.38;;;0.70;;
39566;SDS011;25241;41.978;14.664;2024-02-23T16:15:33;0.73;;;0.40;;
39566;SDS011;25241;41.978;14.664;2024-02-23T16:17:59;5.15;;;1.02;;
39566;SDS011;25241;41.978;14.664;2024-02-23T16:20:24;2.58;;;0.95;;
39566;SDS011;25241;41.978;14.664;2024-02-23T16:22:50;4.60;;;1.25;;
39566;SDS011;25241;41.978;14.664;2024-02-23T16:25:16;10.10;;;1.98;;
39566;SDS011;25241;41.978;14.664;2024-02-23T16:27:42;2.67;;;1.30;;
39566;SDS011;25241;41.978;14.664;2024-02-23T16:30:08;13.35;;;4.45;;
39566;SDS011;25241;41.978;14.664;2024-02-23T16:32:34;6.63;;;1.55;;
39566;SDS011;25241;41.978;14.664;2024-02-23T16:35:02;8.93;;;1.58;;
39566;SDS011;25241;41.978;14.664;2024-02-23T16:37:32;5.32;;;0.95;;
39566;SDS011;25241;41.978;14.664;2024-02-23T16:39:57;3.22;;;1.20;;
39566;SDS011;25241;41.978;14.664;2024-02-23T16:42:23;9.40;;;1.67;;
39566;SDS011;25241;41.978;14.664;2024-02-23T16:44:49;5.60;;;1.60;;
39566;SDS011;25241;41.978;14.664;2024-02-23T16:47:15;4.55;;;1.85;;
39566;SDS011;25241;41.978;14.664;2024-02-23T16:49:43;3.05;;;1.15;;
39566;SDS011;25241;41.978;14.664;2024-02-23T16:52:11;3.83;;;1.52;;
39566;SDS011;25241;41.978;14.664;2024-02-23T16:54:36;3.42;;;1.17;;
39566;SDS011;25241;41.978;14.664;2024-02-23T16:57:02;8.45;;;1.38;;
39566;SDS011;25241;41.978;14.664;2024-02-23T16:59:30;2.15;;;0.93;;
39566;SDS011;25241;41.978;14.664;2024-02-23T17:01:58;4.55;;;1.35;;
39566;SDS011;25241;41.978;14.664;2024-02-23T17:04:23;4.38;;;1.42;;
39566;SDS011;25241;41.978;14.664;2024-02-23T17:06:49;2.40;;;0.85;;
39566;SDS011;25241;41.978;14.664;2024-02-23T17:09:17;3.35;;;1.48;;
39566;SDS011;25241;41.978;14.664;2024-02-23T17:11:45;1.80;;;1.15;;
39566;SDS011;25241;41.978;14.664;2024-02-23T17:14:13;6.97;;;2.22;;
39566;SDS011;25241;41.978;14.664;2024-02-23T17:16:41;1.85;;;1.10;;
39566;SDS011;25241;41.978;14.664;2024-02-23T17:19:09;4.28;;;1.80;;
39566;SDS011;25241;41.978;14.664;2024-02-23T17:21:37;9.02;;;1.52;;
39566;SDS011;25241;41.978;14.664;2024-02-23T17:24:03;6.35;;;1.40;;
39566;SDS011;25241;41.978;14.664;2024-02-23T17:26:31;4.50;;;1.70;;
39566;SDS011;25241;41.978;14.664;2024-02-23T17:28:56;3.28;;;1.25;;
39566;SDS011;25241;41.978;14.664;2024-02-23T17:31:24;8.52;;;1.25;;
39566;SDS011;25241;41.978;14.664;2024-02-23T17:33:52;4.20;;;1.65;;
39566;SDS011;25241;41.978;14.664;2024-02-23T17:36:18;4.72;;;1.40;;
39566;SDS011;25241;41.978;14.664;2024-02-23T17:38:46;3.10;;;1.25;;
39566;SDS011;25241;41.978;14.664;2024-02-23T17:41:11;3.80;;;1.55;;
39566;SDS011;25241;41.978;14.664;2024-02-23T17:43:37;4.97;;;1.20;;
39566;SDS011;25241;41.978;14.664;2024-02-23T17:46:05;1.55;;;0.93;;
39566;SDS011;25241;41.978;14.664;2024-02-23T17:48:32;3.53;;;1.63;;
39566;SDS011;25241;41.978;14.664;2024-02-23T17:50:58;6.82;;;2.03;;
39566;SDS011;25241;41.978;14.664;2024-02-23T17:53:24;2.72;;;1.25;;
39566;SDS011;25241;41.978;14.664;2024-02-23T17:55:53;2.25;;;1.08;;
39566;SDS011;25241;41.978;14.664;2024-02-23T17:58:24;4.00;;;1.92;;
39566;SDS011;25241;41.978;14.664;2024-02-23T18:00:52;5.75;;;1.77;;
39566;SDS011;25241;41.978;14.664;2024-02-23T18:03:18;3.58;;;1.67;;
39566;SDS011;25241;41.978;14.664;2024-02-23T18:05:44;3.63;;;1.90;;
39566;SDS011;25241;41.978;14.664;2024-02-23T18:08:09;8.70;;;1.23;;
39566;SDS011;25241;41.978;14.664;2024-02-23T18:10:37;4.78;;;1.40;;
39566;SDS011;25241;41.978;14.664;2024-02-23T18:13:05;3.83;;;1.65;;
39566;SDS011;25241;41.978;14.664;2024-02-23T18:15:33;7.60;;;2.15;;
39566;SDS011;25241;41.978;14.664;2024-02-23T18:17:59;10.98;;;1.92;;
39566;SDS011;25241;41.978;14.664;2024-02-23T18:20:24;8.70;;;1.65;;
39566;SDS011;25241;41.978;14.664;2024-02-23T18:22:50;6.93;;;2.22;;
39566;SDS011;25241;41.978;14.664;2024-02-23T18:25:18;7.10;;;1.88;;
39566;SDS011;25241;41.978;14.664;2024-02-23T18:27:46;8.98;;;1.55;;
39566;SDS011;25241;41.978;14.664;2024-02-23T18:30:12;12.15;;;1.60;;
39566;SDS011;25241;41.978;14.664;2024-02-23T18:32:38;6.20;;;2.00;;
39566;SDS011;25241;41.978;14.664;2024-02-23T18:35:04;3.92;;;1.63;;
39566;SDS011;25241;41.978;14.664;2024-02-23T18:37:30;4.90;;;1.90;;
39566;SDS011;25241;41.978;14.664;2024-02-23T18:39:56;3.05;;;0.98;;
39566;SDS011;25241;41.978;14.664;2024-02-23T18:42:22;2.60;;;0.80;;
39566;SDS011;25241;41.978;14.664;2024-02-23T18:45:06;1.98;;;1.20;;
39566;SDS011;25241;41.978;14.664;2024-02-23T18:47:32;3.25;;;1.50;;
39566;SDS011;25241;41.978;14.664;2024-02-23T18:49:58;3.92;;;1.25;;
39566;SDS011;25241;41.978;14.664;2024-02-23T18:52:27;3.05;;;1.10;;
39566;SDS011;25241;41.978;14.664;2024-02-23T18:54:52;4.07;;;1.13;;
39566;SDS011;25241;41.978;14.664;2024-02-23T18:57:19;5.95;;;1.13;;
39566;SDS011;25241;41.978;14.664;2024-02-23T18:59:44;2.28;;;1.45;;
39566;SDS011;25241;41.978;14.664;2024-02-23T19:02:13;8.60;;;1.40;;
39566;SDS011;25241;41.978;14.664;2024-02-23T19:04:39;6.07;;;1.60;;
39566;SDS011;25241;41.978;14.664;2024-02-23T19:07:07;6.32;;;2.75;;
39566;SDS011;25241;41.978;14.664;2024-02-23T19:09:35;8.98;;;2.08;;
39566;SDS011;25241;41.978;14.664;2024-02-23T19:12:04;10.77;;;1.65;;
39566;SDS011;25241;41.978;14.664;2024-02-23T19:16:57;5.55;;;1.40;;
39566;SDS011;25241;41.978;14.664;2024-02-23T19:19:23;6.63;;;2.35;;
39566;SDS011;25241;41.978;14.664;2024-02-23T19:21:48;5.45;;;1.25;;
39566;SDS011;25241;41.978;14.664;2024-02-23T19:24:14;1.30;;;0.82;;
39566;SDS011;25241;41.978;14.664;2024-02-23T19:26:40;5.78;;;1.33;;
39566;SDS011;25241;41.978;14.664;2024-02-23T19:29:07;2.58;;;1.02;;
39566;SDS011;25241;41.978;14.664;2024-02-23T19:31:34;4.85;;;1.08;;
39566;SDS011;25241;41.978;14.664;2024-02-23T19:34:01;2.03;;;1.10;;
39566;SDS011;25241;41.978;14.664;2024-02-23T19:36:28;7.15;;;1.40;;
39566;SDS011;25241;41.978;14.664;2024-02-23T19:38:54;4.47;;;1.20;;
39566;SDS011;25241;41.978;14.664;2024-02-23T19:41:22;3.38;;;1.35;;
39566;SDS011;25241;41.978;14.664;2024-02-23T19:43:49;1.05;;;0.90;;
39566;SDS011;25241;41.978;14.664;2024-02-23T19:46:14;5.93;;;1.30;;
39566;SDS011;25241;41.978;14.664;2024-02-23T19:48:46;5.72;;;1.50;;
39566;SDS011;25241;41.978;14.664;2024-02-23T19:51:11;3.22;;;1.40;;
39566;SDS011;25241;41.978;14.664;2024-02-23T19:53:40;4.25;;;1.30;;
39566;SDS011;25241;41.978;14.664;2024-02-23T19:56:11;8.50;;;1.65;;
39566;SDS011;25241;41.978;14.664;2024-02-23T19:58:38;4.65;;;1.23;;
39566;SDS011;25241;41.978;14.664;2024-02-23T20:01:03;5.82;;;1.25;;
39566;SDS011;25241;41.978;14.664;2024-02-23T20:03:31;2.15;;;0.90;;
39566;SDS011;25241;41.978;14.664;2024-02-23T20:05:59;2.72;;;1.10;;
39566;SDS011;25241;41.978;14.664;2024-02-23T20:08:25;1.05;;;0.95;;
39566;SDS011;25241;41.978;14.664;2024-02-23T20:10:50;4.10;;;0.82;;
39566;SDS011;25241;41.978;14.664;2024-02-23T20:13:16;1.95;;;0.70;;
39566;SDS011;25241;41.978;14.664;2024-02-23T20:15:41;7.03;;;1.48;;
39566;SDS011;25241;41.978;14.664;2024-02-23T20:18:07;1.25;;;0.63;;
39566;SDS011;25241;41.978;14.664;2024-02-23T20:20:33;2.15;;;0.85;;
39566;SDS011;25241;41.978;14.664;2024-02-23T20:23:03;3.30;;;1.08;;
39566;SDS011;25241;41.978;14.664;2024-02-23T20:25:29;3.08;;;0.93;;
39566;SDS011;25241;41.978;14.664;2024-02-23T20:27:54;3.90;;;1.05;;
39566;SDS011;25241;41.978;14.664;2024-02-23T20:30:22;3.22;;;0.90;;
39566;SDS011;25241;41.978;14.664;2024-02-23T20:32:48;1.65;;;0.85;;
39566;SDS011;25241;41.978;14.664;2024-02-23T20:35:13;5.75;;;1.17;;
39566;SDS011;25241;41.978;14.664;2024-02-23T20:37:41;2.95;;;0.68;;
39566;SDS011;25241;41.978;14.664;2024-02-23T20:40:07;3.08;;;0.57;;
39566;SDS011;25241;41.978;14.664;2024-02-23T20:42:36;3.50;;;0.85;;
39566;SDS011;25241;41.978;14.664;2024-02-23T20:45:01;0.60;;;0.40;;
39566;SDS011;25241;41.978;14.664;2024-02-23T20:47:27;5.22;;;0.60;;
39566;SDS011;25241;41.978;14.664;2024-02-23T20:49:54;0.80;;;0.65;;
39566;SDS011;25241;41.978;14.664;2024-02-23T20:52:19;0.57;;;0.40;;
39566;SDS011;25241;41.978;14.664;2024-02-23T20:54:47;0.90;;;0.55;;
39566;SDS011;25241;41.978;14.664;2024-02-23T20:57:14;0.77;;;0.50;;
39566;SDS011;25241;41.978;14.664;2024-02-23T20:59:39;2.13;;;0.40;;
39566;SDS011;25241;41.978;14.664;2024-02-23T21:02:07;1.40;;;0.45;;
39566;SDS011;25241;41.978;14.664;2024-02-23T21:04:36;1.00;;;0.57;;
39566;SDS011;25241;41.978;14.664;2024-02-23T21:07:05;2.83;;;0.60;;
39566;SDS011;25241;41.978;14.664;2024-02-23T21:09:31;0.50;;;0.38;;
39566;SDS011;25241;41.978;14.664;2024-02-23T21:11:59;1.65;;;0.45;;
39566;SDS011;25241;41.978;14.664;2024-02-23T21:14:27;1.08;;;0.52;;
39566;SDS011;25241;41.978;14.664;2024-02-23T21:16:53;2.13;;;0.57;;
39566;SDS011;25241;41.978;14.664;2024-02-23T21:19:21;1.20;;;0.32;;
39566;SDS011;25241;41.978;14.664;2024-02-23T21:21:46;0.65;;;0.38;;
39566;SDS011;25241;41.978;14.664;2024-02-23T21:24:12;5.40;;;0.50;;
39566;SDS011;25241;41.978;14.664;2024-02-23T21:26:38;1.15;;;0.40;;
39566;SDS011;25241;41.978;14.664;2024-02-23T21:29:06;1.85;;;0.30;;
39566;SDS011;25241;41.978;14.664;2024-02-23T21:31:32;0.80;;;0.50;;
39566;SDS011;25241;41.978;14.664;2024-02-23T21:34:00;1.05;;;0.30;;
39566;SDS011;25241;41.978;14.664;2024-02-23T21:36:28;1.92;;;0.50;;
39566;SDS011;25241;41.978;14.664;2024-02-23T21:38:54;0.40;;;0.22;;
39566;SDS011;25241;41.978;14.664;2024-02-23T21:41:20;3.47;;;0.50;;
39566;SDS011;25241;41.978;14.664;2024-02-23T21:43:45;0.50;;;0.40;;
39566;SDS011;25241;41.978;14.664;2024-02-23T21:46:11;1.58;;;0.40;;
39566;SDS011;25241;41.978;14.664;2024-02-23T21:48:40;1.42;;;0.20;;
39566;SDS011;25241;41.978;14.664;2024-02-23T21:51:09;0.15;;;0.13;;
39566;SDS011;25241;41.978;14.664;2024-02-23T21:53:37;0.30;;;0.15;;
39566;SDS011;25241;41.978;14.664;2024-02-23T21:56:05;0.65;;;0.45;;
39566;SDS011;25241;41.978;14.664;2024-02-23T21:58:33;0.10;;;0.10;;
39566;SDS011;25241;41.978;14.664;2024-02-23T22:00:59;0.20;;;0.20;;
39566;SDS011;25241;41.978;14.664;2024-02-23T22:03:28;0.45;;;0.10;;
39566;SDS011;25241;41.978;14.664;2024-02-23T22:05:54;0.32;;;0.20;;
39566;SDS011;25241;41.978;14.664;2024-02-23T22:08:21;1.98;;;0.20;;
39566;SDS011;25241;41.978;14.664;2024-02-23T22:10:50;0.10;;;0.10;;
39566;SDS011;25241;41.978;14.664;2024-02-23T22:13:15;0.80;;;0.13;;
39566;SDS011;25241;41.978;14.664;2024-02-23T22:15:41;0.00;;;0.00;;
39566;SDS011;25241;41.978;14.664;2024-02-23T22:18:09;0.52;;;0.20;;
39566;SDS011;25241;41.978;14.664;2024-02-23T22:20:37;1.67;;;0.10;;
39566;SDS011;25241;41.978;14.664;2024-02-23T22:23:05;1.98;;;0.20;;
39566;SDS011;25241;41.978;14.664;2024-02-23T22:25:30;1.13;;;0.40;;
39566;SDS011;25241;41.978;14.664;2024-02-23T22:27:58;2.00;;;0.55;;
39566;SDS011;25241;41.978;14.664;2024-02-23T22:30:26;0.20;;;0.20;;
39566;SDS011;25241;41.978;14.664;2024-02-23T22:32:55;1.80;;;0.10;;
39566;SDS011;25241;41.978;14.664;2024-02-23T22:35:23;0.10;;;0.10;;
39566;SDS011;25241;41.978;14.664;2024-02-23T22:37:52;0.43;;;0.10;;
39566;SDS011;25241;41.978;14.664;2024-02-23T22:40:17;0.38;;;0.10;;
39566;SDS011;25241;41.978;14.664;2024-02-23T22:42:45;0.00;;;0.00;;
39566;SDS011;25241;41.978;14.664;2024-02-23T22:45:11;0.00;;;0.00;;
39566;SDS011;25241;41.978;14.664;2024-02-23T22:47:37;0.13;;;0.00;;
39566;SDS011;25241;41.978;14.664;2024-02-23T22:50:02;0.10;;;0.00;;
39566;SDS011;25241;41.978;14.664;2024-02-23T22:52:31;0.10;;;0.10;;
39566;SDS011;25241;41.978;14.664;2024-02-23T22:54:59;1.65;;;0.20;;
39566;SDS011;25241;41.978;14.664;2024-02-23T22:57:24;0.00;;;0.00;;
39566;SDS011;25241;41.978;14.664;2024-02-23T22:59:53;3.25;;;0.10;;
39566;SDS011;25241;41.978;14.664;2024-02-23T23:02:18;0.20;;;0.00;;
39566;SDS011;25241;41.978;14.664;2024-02-23T23:04:44;0.40;;;0.10;;
39566;SDS011;25241;41.978;14.664;2024-02-23T23:07:10;1.38;;;0.10;;
39566;SDS011;25241;41.978;14.664;2024-02-23T23:09:36;0.00;;;0.00;;
39566;SDS011;25241;41.978;14.664;2024-02-23T23:12:04;0.20;;;0.10;;
39566;SDS011;25241;41.978;14.664;2024-02-23T23:14:32;0.00;;;0.00;;
39566;SDS011;25241;41.978;14.664;2024-02-23T23:17:00;0.00;;;0.00;;
39566;SDS011;25241;41.978;14.664;2024-02-23T23:19:28;0.00;;;0.00;;
39566;SDS011;25241;41.978;14.664;2024-02-23T23:21:55;0.65;;;0.10;;
39566;SDS011;25241;41.978;14.664;2024-02-23T23:24:23;0.03;;;0.03;;
39566;SDS011;25241;41.978;14.664;2024-02-23T23:26:49;0.00;;;0.00;;
39566;SDS011;25241;41.978;14.664;2024-02-23T23:29:15;0.60;;;0.08;;
39566;SDS011;25241;41.978;14.664;2024-02-23T23:31:40;0.10;;;0.10;;
39566;SDS011;25241;41.978;14.664;2024-02-23T23:34:08;1.13;;;0.28;;
39566;SDS011;25241;41.978;14.664;2024-02-23T23:36:34;1.73;;;0.10;;
39566;SDS011;25241;41.978;14.664;2024-02-23T23:39:00;1.42;;;0.25;;
39566;SDS011;25241;41.978;14.664;2024-02-23T23:41:26;0.00;;;0.00;;
39566;SDS011;25241;41.978;14.664;2024-02-23T23:43:52;3.92;;;0.10;;
39566;SDS011;25241;41.978;14.664;2024-02-23T23:46:17;0.10;;;0.10;;
39566;SDS011;25241;41.978;14.664;2024-02-23T23:48:43;1.05;;;0.10;;
39566;SDS011;25241;41.978;14.664;2024-02-23T23:51:11;0.03;;;0.03;;
39566;SDS011;25241;41.978;14.664;2024-02-23T23:53:37;0.10;;;0.00;;
39566;SDS011;25241;41.978;14.664;2024-02-23T23:56:07;0.68;;;0.03;;
